Time;durP1;ratioP1;P1;durP2;ratioP2;P2;SDS_P1;SDS_P2;PMS_P1;PMS_P2;Temp;Humidity;BMP_temperature;BMP_pressure;BME280_temperature;BME280_humidity;BME280_pressure;Samples;Min_cycle;Max_cycle;Signal;HPM_P1;HPM_P2
2022/01/12 00:01:42;;;;;;;59.50;35.55;;;7.70;99.90;;;7.99;87.08;103442.69;5073046;28;20045;-74
2022/01/12 00:04:11;;;;;;;58.08;34.80;;;7.80;99.90;;;8.01;86.80;103441.03;5074119;28;20091;-75
2022/01/12 00:06:40;;;;;;;59.95;35.42;;;7.80;99.90;;;8.03;86.66;103442.03;5074064;28;20348;-74
2022/01/12 00:09:09;;;;;;;55.67;34.72;;;7.80;99.90;;;8.06;86.82;103436.00;5072799;28;20155;-75
2022/01/12 00:11:38;;;;;;;55.67;33.53;;;7.80;99.90;;;7.95;86.60;103427.59;5074044;28;20405;-77
2022/01/12 00:14:07;;;;;;;56.03;33.70;;;7.80;99.90;;;8.09;86.91;103431.75;5072654;28;20385;-77
2022/01/12 00:16:35;;;;;;;56.95;34.92;;;7.80;99.90;;;8.08;86.64;103413.25;5072632;28;20117;-78
2022/01/12 00:19:03;;;;;;;56.10;33.45;;;7.80;99.90;;;8.05;86.98;103414.00;5073767;28;20098;-77
2022/01/12 00:21:32;;;;;;;56.38;33.80;;;7.80;99.90;;;8.00;87.22;103414.63;5074264;28;20040;-78
2022/01/12 00:24:00;;;;;;;53.45;33.00;;;7.80;99.90;;;7.97;87.48;103414.50;5073700;28;20127;-79
2022/01/12 00:33:07;;;;;;;53.67;32.53;;;7.80;99.90;;;8.01;87.19;103400.63;5073755;28;20153;-78
2022/01/12 00:35:01;;;;;;;49.22;31.55;;;7.80;99.90;;;7.87;88.02;103415.78;5072419;28;20083;-79
2022/01/12 00:37:30;;;;;;;47.17;29.58;;;7.70;99.90;;;7.91;87.74;103411.56;5072331;28;20502;-79
2022/01/12 00:40:00;;;;;;;44.58;29.38;;;7.70;99.90;;;7.89;87.62;103419.41;5072487;28;20075;-78
2022/01/12 00:42:30;;;;;;;44.50;30.10;;;7.70;99.90;;;7.87;88.11;103425.44;5073521;28;20098;-77
2022/01/12 00:45:01;;;;;;;44.58;28.88;;;7.60;99.90;;;7.90;88.29;103433.47;5073926;28;20036;-77
2022/01/12 00:47:29;;;;;;;41.58;28.15;;;7.70;99.90;;;7.96;87.81;103442.56;5072122;28;20044;-78
2022/01/12 00:49:58;;;;;;;44.67;29.05;;;7.70;99.90;;;7.98;87.99;103433.00;5073499;28;20040;-78
2022/01/12 00:52:26;;;;;;;40.67;28.35;;;7.80;99.90;;;7.96;87.93;103426.75;5073014;28;20072;-78
2022/01/12 00:54:54;;;;;;;39.55;27.77;;;7.70;99.90;;;7.93;88.16;103429.25;5073411;28;20218;-78
2022/01/12 00:57:23;;;;;;;38.28;25.70;;;7.70;99.90;;;7.94;88.12;103430.16;5071975;28;20848;-79
2022/01/12 00:59:52;;;;;;;36.20;26.40;;;7.70;99.90;;;7.91;88.07;103430.00;5073297;28;20090;-77
2022/01/12 01:02:21;;;;;;;36.43;25.37;;;7.70;99.90;;;7.81;88.09;103428.69;5073343;28;20048;-78
2022/01/12 01:04:49;;;;;;;38.97;26.17;;;7.60;99.90;;;7.85;88.41;103422.72;5071596;28;20056;-75
2022/01/12 01:07:18;;;;;;;36.78;25.67;;;7.60;99.90;;;7.83;88.61;103419.13;5071905;28;20135;-78
2022/01/12 01:09:57;;;;;;;37.58;25.50;;;7.60;99.90;;;7.83;88.53;103413.84;5071845;28;20470;-78
2022/01/12 01:12:26;;;;;;;40.05;27.77;;;7.60;99.90;;;7.90;88.77;103413.28;5071706;28;20052;-77
2022/01/12 01:15:04;;;;;;;39.47;27.50;;;7.60;99.90;;;7.92;88.51;103408.09;5071725;28;20135;-77
2022/01/12 01:25:54;;;;;;;40.97;26.92;;;7.80;99.90;;;7.98;88.82;103403.09;5073138;28;20101;-77
2022/01/12 01:28:24;;;;;;;38.75;26.48;;;7.70;99.90;;;8.06;88.42;103414.91;5071365;28;20525;-77
2022/01/12 01:30:55;;;;;;;42.38;29.90;;;7.80;99.90;;;8.04;88.26;103422.75;5071637;28;20103;-77
2022/01/12 01:33:27;;;;;;;38.65;28.23;;;7.80;99.90;;;8.08;88.81;103427.34;5071247;28;20041;-78
2022/01/12 01:35:57;;;;;;;43.87;30.10;;;7.80;99.90;;;8.12;87.78;103431.94;5072577;28;20445;-77
2022/01/12 01:38:27;;;;;;;41.72;29.63;;;7.90;99.90;;;8.02;88.25;103410.31;5071788;28;20139;-76
2022/01/12 01:40:56;;;;;;;41.05;29.55;;;7.90;99.90;;;8.09;88.14;103429.13;5071632;28;20143;-77
2022/01/12 01:43:40;;;;;;;41.17;29.38;;;7.90;99.90;;;8.13;87.82;103446.91;5072553;28;20406;-78
2022/01/12 01:54:31;;;;;;;46.22;32.13;;;7.90;99.90;;;8.12;88.25;103476.75;5070893;28;20107;-78
2022/01/12 01:56:59;;;;;;;46.13;31.52;;;7.90;99.90;;;8.14;87.87;103484.72;5070817;28;20498;-78
2022/01/12 01:59:28;;;;;;;49.95;33.40;;;7.90;99.90;;;8.16;88.04;103483.06;5070727;28;20040;-78
2022/01/12 02:01:57;;;;;;;46.53;31.10;;;7.90;99.90;;;8.17;88.05;103501.56;5070694;28;20048;-77
2022/01/12 02:04:26;;;;;;;46.10;30.83;;;7.90;99.90;;;7.97;88.01;103515.56;5070713;28;20479;-77
2022/01/12 02:06:58;;;;;;;51.45;33.47;;;7.90;99.90;;;7.63;89.29;103535.78;5070614;28;20083;-77
2022/01/12 02:09:27;;;;;;;51.60;33.80;;;7.50;99.90;;;7.45;89.80;103503.28;5072317;28;20040;-78
2022/01/12 02:12:14;;;;;;;52.30;34.58;;;7.40;99.90;;;7.67;90.28;103529.84;5070629;28;20072;-77
2022/01/12 02:14:45;;;;;;;53.35;34.13;;;7.40;99.90;;;7.81;89.96;103520.91;5070519;28;20052;-78
2022/01/12 02:17:20;;;;;;;51.87;33.30;;;7.50;99.90;;;7.92;89.54;103526.69;5070556;28;20041;-78
2022/01/12 02:19:57;;;;;;;58.70;36.88;;;7.70;99.90;;;7.93;89.29;103539.94;5071621;28;20044;-77
2022/01/12 02:36:43;;;;;;;53.22;33.90;;;8.00;99.90;;;8.26;88.03;103545.06;5071852;28;20076;-77
2022/01/12 02:41:59;;;;;;;56.25;35.20;;;8.10;99.90;;;8.35;87.54;103546.41;5071755;28;20504;-77
2022/01/12 02:55:33;;;;;;;52.53;33.20;;;8.20;99.90;;;8.48;87.17;103547.91;5071684;28;20069;-77
2022/01/12 02:58:02;;;;;;;55.72;35.15;;;8.30;99.90;;;8.48;86.88;103537.38;5070404;28;20207;-77
2022/01/12 03:00:45;;;;;;;58.33;35.70;;;8.30;99.90;;;8.44;86.76;103530.13;5074557;28;20528;-77
2022/01/12 03:03:22;;;;;;;62.60;38.47;;;8.20;99.90;;;8.50;86.81;103541.84;5074798;28;20090;-77
2022/01/12 03:05:58;;;;;;;59.17;36.45;;;8.30;99.90;;;8.55;87.03;103534.16;5074357;28;20059;-78
2022/01/12 03:08:29;;;;;;;59.95;35.78;;;8.30;99.90;;;8.52;86.82;103539.28;5074038;28;20044;-77
2022/01/12 03:10:59;;;;;;;58.83;36.47;;;8.30;99.90;;;8.54;86.54;103537.63;5074418;28;20047;-78
2022/01/12 03:13:27;;;;;;;60.83;37.30;;;8.30;99.90;;;8.57;86.41;103529.88;5075985;28;20123;-77
2022/01/12 03:15:57;;;;;;;65.03;38.55;;;8.30;99.90;;;8.52;86.52;103529.63;5073975;28;20481;-77
2022/01/12 03:18:25;;;;;;;62.03;38.00;;;8.30;99.90;;;8.48;86.58;103522.41;5073994;28;20144;-77
2022/01/12 03:20:54;;;;;;;65.22;39.03;;;8.30;99.90;;;8.44;86.95;103527.50;5073957;28;20098;-76
2022/01/12 03:23:22;;;;;;;64.80;37.63;;;8.20;99.90;;;8.45;86.73;103539.84;5073828;28;20159;-78
2022/01/12 03:25:50;;;;;;;70.22;39.10;;;8.20;99.90;;;8.41;86.86;103556.34;5073599;28;20048;-77
2022/01/12 03:28:20;;;;;;;65.20;39.63;;;8.20;99.90;;;8.45;87.17;103559.22;5073654;28;20041;-77
2022/01/12 03:30:54;;;;;;;70.85;41.63;;;8.20;99.90;;;8.48;86.87;103561.97;5073537;28;20148;-77
2022/01/12 03:33:49;;;;;;;63.83;39.65;;;8.20;99.90;;;8.50;86.95;103569.97;5074743;28;20067;-77
2022/01/12 03:36:40;;;;;;;66.72;39.72;;;8.30;99.90;;;8.40;86.84;103547.53;5073431;28;20175;-77
2022/01/12 03:39:13;;;;;;;;;;;8.30;99.90;;;8.41;86.94;103572.16;5073833;28;20051;-77
2022/01/12 03:41:45;;;;;;;69.13;38.15;;;8.20;99.90;;;8.48;86.97;103575.16;5073401;28;20070;-77
2022/01/12 03:44:17;;;;;;;63.35;38.58;;;8.20;99.90;;;8.52;87.08;103570.94;5073244;28;20466;-77
2022/01/12 03:46:49;;;;;;;70.20;39.28;;;8.30;99.90;;;8.58;86.35;103572.13;5073373;28;20143;-78
2022/01/12 03:49:21;;;;;;;71.78;39.85;;;8.40;99.90;;;8.60;86.56;103565.19;5073215;28;20121;-77
2022/01/12 03:51:50;;;;;;;;;;;8.40;99.90;;;8.65;86.66;103573.34;5073725;28;20052;-76
2022/01/12 03:54:20;;;;;;;73.30;39.38;;;8.40;99.90;;;8.69;86.25;103575.28;5107171;28;19927;-77
2022/01/12 03:56:50;;;;;;;68.68;38.95;;;8.50;99.90;;;8.70;86.33;103571.81;5073143;28;20052;-77
2022/01/12 03:59:20;;;;;;;68.95;38.10;;;8.50;99.90;;;8.71;86.04;103571.88;5073129;28;20048;-78
2022/01/12 04:01:49;;;;;;;73.28;38.42;;;8.50;99.90;;;8.70;85.38;103571.81;5072770;28;20045;-77
2022/01/12 04:04:23;;;;;;;74.10;38.53;;;8.50;99.90;;;8.57;85.76;103562.44;5072935;28;20045;-77
2022/01/12 04:09:45;;;;;;;66.63;38.08;;;8.40;99.90;;;8.49;86.33;103558.53;5071504;28;20114;-77
2022/01/12 04:12:17;;;;;;;65.70;36.97;;;8.30;99.90;;;8.56;86.39;103563.25;5072962;28;20461;-77
2022/01/12 04:14:47;;;;;;;69.33;38.37;;;8.30;99.90;;;8.55;86.17;103568.47;5072013;28;20052;-77
2022/01/12 04:17:15;;;;;;;65.95;35.85;;;8.30;99.90;;;8.32;86.53;103545.38;5071849;28;20040;-77
2022/01/12 04:19:46;;;;;;;66.90;37.80;;;8.30;99.90;;;8.23;86.97;103558.97;5071832;28;20052;-77
2022/01/12 04:25:08;;;;;;;73.93;39.53;;;8.10;99.90;;;8.19;87.21;103564.91;5071811;28;20053;-77
2022/01/12 04:27:37;;;;;;;73.40;39.70;;;8.00;99.90;;;8.26;87.56;103576.72;5071730;28;20091;-77
2022/01/12 04:30:08;;;;;;;74.88;40.25;;;8.10;99.90;;;8.28;87.49;103585.59;5071828;28;20054;-77
2022/01/12 04:32:41;;;;;;;70.38;37.75;;;8.00;99.90;;;8.29;87.24;103588.31;5072044;28;20139;-77
2022/01/12 04:35:13;;;;;;;70.13;38.67;;;8.10;99.90;;;8.36;87.35;103594.78;5071539;28;20087;-78
2022/01/12 04:37:41;;;;;;;69.32;37.33;;;8.10;99.90;;;7.88;86.95;103499.28;5072880;28;20101;-77
2022/01/12 04:40:11;;;;;;;72.75;37.15;;;8.20;99.90;;;8.41;86.70;103588.00;5072750;28;20406;-77
2022/01/12 04:42:40;;;;;;;71.28;38.10;;;8.20;99.90;;;8.32;86.91;103584.94;5072644;28;20147;-77
2022/01/12 04:45:31;;;;;;;74.30;38.78;;;8.20;99.90;;;8.31;87.11;103577.81;5072700;28;20052;-78
2022/01/12 04:48:07;;;;;;;84.15;41.92;;;8.10;99.90;;;8.26;86.91;103582.00;5071173;28;20493;-77
2022/01/12 04:50:37;;;;;;;76.70;40.03;;;8.10;99.90;;;8.26;87.09;103577.63;5072619;28;20098;-77
2022/01/12 04:53:06;;;;;;;71.03;36.65;;;8.00;99.90;;;8.06;87.41;103584.53;5071379;28;20155;-76
2022/01/12 04:55:35;;;;;;;73.47;39.65;;;7.90;99.90;;;8.05;88.22;103587.97;5070784;28;20091;-77
2022/01/12 04:58:04;;;;;;;74.68;40.17;;;7.80;99.90;;;8.00;87.95;103578.94;5072743;28;20080;-75
2022/01/12 05:00:36;;;;;;;75.53;38.80;;;7.80;99.90;;;8.07;88.10;103573.13;5071083;28;20044;-77
2022/01/12 05:08:53;;;;;;;79.15;40.15;;;7.80;99.90;;;7.88;88.96;103578.34;5072961;28;19920;-75
2022/01/12 05:14:09;;;;;;;69.80;38.42;;;7.80;99.90;;;7.39;89.27;103479.25;5071598;28;20159;-73
2022/01/12 05:16:39;;;;;;;74.32;41.30;;;7.80;99.90;;;8.07;88.92;103598.63;5071498;28;20143;-73
2022/01/12 05:19:07;;;;;;;71.95;39.45;;;7.90;99.90;;;8.11;88.57;103604.09;5072881;28;20068;-75
2022/01/12 05:21:36;;;;;;;74.63;40.38;;;7.90;99.90;;;8.05;88.58;103603.78;5072168;28;20041;-76
2022/01/12 05:24:06;;;;;;;75.40;42.97;;;7.90;99.90;;;8.16;88.60;103599.97;5071398;28;20052;-73
2022/01/12 05:26:35;;;;;;;66.28;39.38;;;7.90;99.90;;;8.18;88.35;103603.59;5071410;28;20152;-73
2022/01/12 05:29:07;;;;;;;65.25;38.72;;;8.00;99.90;;;8.15;87.84;103603.41;5071551;28;20048;-73
2022/01/12 05:31:37;;;;;;;61.28;37.85;;;7.90;99.90;;;8.13;87.87;103607.72;5071349;28;20083;-73
2022/01/12 05:34:06;;;;;;;59.45;36.65;;;7.90;99.90;;;8.11;88.23;103609.38;5071131;28;20055;-73
2022/01/12 05:36:35;;;;;;;68.45;34.55;;;7.90;99.90;;;8.06;87.77;103602.06;5071243;28;20079;-74
2022/01/12 05:39:05;;;;;;;68.60;33.13;;;7.80;99.90;;;7.90;88.24;103597.75;5071280;28;20102;-72
2022/01/12 05:41:34;;;;;;;59.28;32.85;;;7.80;99.90;;;7.91;88.23;103612.75;5071525;28;20067;-73
2022/01/12 05:44:06;;;;;;;68.72;31.27;;;7.70;99.90;;;7.77;88.51;103621.69;5071150;28;20040;-73
2022/01/12 05:46:37;;;;;;;49.70;29.90;;;7.60;99.90;;;7.85;88.53;103624.72;5071237;28;20516;-72
2022/01/12 05:52:01;;;;;;;46.53;28.92;;;7.70;99.90;;;7.91;88.12;103628.56;5071437;28;20474;-73
2022/01/12 05:54:30;;;;;;;47.00;30.45;;;7.70;99.90;;;7.91;87.92;103631.22;5070974;28;20052;-73
2022/01/12 05:56:58;;;;;;;44.80;29.83;;;7.70;99.90;;;7.92;87.90;103624.19;5071079;28;20052;-73
2022/01/12 05:59:27;;;;;;;40.08;29.15;;;7.70;99.90;;;7.80;87.20;103629.72;5070729;28;20089;-72
2022/01/12 06:01:57;;;;;;;47.97;28.03;;;7.60;99.90;;;7.64;87.42;103632.44;5070656;28;20078;-72
2022/01/12 06:04:27;;;;;;;42.10;28.35;;;7.50;99.90;;;7.58;87.72;103640.00;5070650;28;20290;-73
2022/01/12 06:06:57;;;;;;;39.85;27.80;;;7.40;99.90;;;7.52;87.87;103633.50;5070333;28;20060;-73
2022/01/12 06:09:26;;;;;;;37.13;27.88;;;7.30;99.90;;;7.51;87.99;103637.88;5070555;28;20068;-72
2022/01/12 06:11:55;;;;;;;40.33;28.33;;;7.20;99.90;;;7.49;87.79;103644.78;5070864;28;20060;-73
2022/01/12 06:14:23;;;;;;;38.58;27.55;;;7.20;99.90;;;7.46;87.86;103660.44;5070779;28;20052;-72
2022/01/12 06:16:52;;;;;;;43.38;26.90;;;7.20;99.90;;;7.50;87.66;103667.69;5070834;28;20048;-72
2022/01/12 06:19:20;;;;;;;66.35;26.58;;;7.20;99.90;;;7.48;87.44;103671.94;5070410;28;20425;-74
2022/01/12 06:22:03;;;;;;;41.35;27.17;;;7.20;99.90;;;7.61;86.60;103674.41;5070640;28;20058;-73
2022/01/12 06:24:31;;;;;;;34.55;25.58;;;7.40;99.90;;;7.53;86.38;103672.22;5070180;28;20742;-73
2022/01/12 06:27:03;;;;;;;36.90;26.02;;;7.30;99.90;;;7.33;86.40;103671.16;5070303;28;20397;-73
2022/01/12 06:29:41;;;;;;;38.33;26.00;;;7.10;99.90;;;7.15;86.72;103662.25;5071826;28;20091;-74
2022/01/12 06:32:11;;;;;;;39.03;25.00;;;7.10;99.90;;;7.07;86.47;103680.25;5071306;28;20431;-73
2022/01/12 06:34:39;;;;;;;46.78;25.05;;;6.90;99.90;;;6.98;86.81;103673.59;5071645;28;20113;-72
2022/01/12 06:37:11;;;;;;;32.97;23.85;;;6.80;99.90;;;6.97;86.97;103680.56;5070217;28;20048;-71
2022/01/12 06:39:39;;;;;;;51.28;24.65;;;6.70;99.90;;;6.88;86.98;103679.16;5070272;28;20045;-72
2022/01/12 06:42:09;;;;;;;32.33;23.77;;;6.70;99.90;;;6.80;87.26;103677.81;5070381;28;20062;-71
2022/01/12 06:44:37;;;;;;;52.38;23.35;;;6.60;99.90;;;6.81;86.81;103692.78;5070096;28;20079;-73
2022/01/12 06:47:07;;;;;;;32.22;24.52;;;6.50;99.90;;;6.76;86.98;103684.63;5070395;28;20140;-73
2022/01/12 06:49:36;;;;;;;33.00;23.40;;;6.50;99.90;;;6.69;86.96;103681.56;5071456;28;20098;-73
2022/01/12 06:52:05;;;;;;;29.17;22.02;;;6.50;99.90;;;6.63;86.83;103684.78;5070320;28;20048;-73
2022/01/12 06:54:35;;;;;;;31.38;22.33;;;6.40;99.90;;;6.62;86.69;103696.09;5071562;28;20052;-72
2022/01/12 06:57:05;;;;;;;23.25;19.50;;;6.40;99.90;;;6.60;86.37;103691.59;5070142;28;20441;-72
2022/01/12 06:59:34;;;;;;;27.40;21.83;;;6.40;99.90;;;6.61;86.23;103704.81;5070118;28;20049;-72
2022/01/12 07:02:02;;;;;;;29.50;20.33;;;6.40;99.90;;;6.54;85.93;103715.81;5070344;28;20056;-73
2022/01/12 07:04:36;;;;;;;25.58;20.00;;;6.30;99.90;;;6.46;85.95;103716.19;5070393;28;20052;-72
2022/01/12 07:07:06;;;;;;;28.27;21.27;;;6.30;99.90;;;6.39;85.91;103720.16;5069990;28;20091;-73
2022/01/12 07:09:39;;;;;;;38.92;23.77;;;6.20;99.90;;;6.43;86.51;103727.41;5069962;28;20048;-73
2022/01/12 07:12:16;;;;;;;35.83;23.33;;;6.20;99.90;;;6.53;86.62;103734.09;5069984;28;20068;-72
2022/01/12 07:14:44;;;;;;;29.13;21.90;;;6.30;99.90;;;6.54;86.93;103725.41;5069920;28;20040;-73
2022/01/12 07:17:15;;;;;;;27.15;21.45;;;6.30;99.90;;;6.49;86.50;103732.09;5070413;28;20052;-72
2022/01/12 07:19:43;;;;;;;27.77;20.55;;;6.30;99.90;;;6.46;86.79;103730.25;5070256;28;20052;-71
2022/01/12 07:22:12;;;;;;;30.77;20.63;;;6.20;99.90;;;6.46;86.53;103727.59;5070315;28;20048;-72
2022/01/12 07:24:42;;;;;;;24.77;20.00;;;6.20;99.90;;;6.44;86.29;103723.06;5071260;28;20836;-72
2022/01/12 07:27:10;;;;;;;25.25;21.25;;;6.20;99.90;;;6.40;86.23;103727.25;5070915;28;20151;-73
2022/01/12 07:29:39;;;;;;;23.23;19.37;;;6.20;99.90;;;6.33;86.11;103723.34;5071094;28;20114;-73
2022/01/12 07:32:08;;;;;;;24.53;18.97;;;6.10;99.90;;;6.21;84.88;103727.88;5070877;28;20375;-73
2022/01/12 07:34:37;;;;;;;29.97;21.17;;;6.00;99.90;;;5.71;84.28;103728.25;5071034;28;20405;-71
2022/01/12 07:37:06;;;;;;;31.70;19.67;;;5.60;99.90;;;5.29;85.64;103723.88;5071512;28;20106;-72
2022/01/12 07:39:34;;;;;;;28.33;20.30;;;5.10;99.90;;;5.38;86.71;103730.59;5071103;28;20136;-71
2022/01/12 07:42:05;;;;;;;33.10;21.47;;;5.10;99.90;;;5.26;86.50;103742.06;5069609;28;20102;-71
2022/01/12 07:44:35;;;;;;;29.90;21.50;;;5.10;99.90;;;5.10;86.95;103739.28;5070439;28;20048;-72
2022/01/12 07:47:04;;;;;;;29.43;21.83;;;4.90;99.90;;;5.16;86.77;103735.34;5074408;28;20059;-72
2022/01/12 07:49:34;;;;;;;23.23;19.20;;;4.90;99.90;;;5.14;87.02;103747.44;5074233;28;20076;-73
2022/01/12 07:52:02;;;;;;;38.08;20.13;;;4.90;99.90;;;4.35;86.43;103631.31;5074367;28;20072;-69
2022/01/12 07:54:31;;;;;;;33.73;19.00;;;4.80;99.90;;;4.77;86.71;103753.75;5073883;28;20072;-70
2022/01/12 07:56:59;;;;;;;50.70;19.07;;;4.60;99.90;;;4.49;88.11;103760.63;5074059;28;20098;-70
2022/01/12 07:59:29;;;;;;;24.77;19.47;;;4.30;99.90;;;4.54;89.21;103759.19;5074030;28;20537;-71
2022/01/12 08:01:57;;;;;;;33.60;20.80;;;4.30;99.90;;;4.49;89.39;103766.75;5074226;28;20041;-70
2022/01/12 08:04:26;;;;;;;29.27;19.40;;;4.30;99.90;;;4.65;89.91;103773.91;5074218;28;20398;-72
2022/01/12 08:06:55;;;;;;;54.73;23.67;;;4.40;99.90;;;4.89;90.27;103779.84;5074603;28;20139;-72
2022/01/12 08:09:24;;;;;;;34.00;23.10;;;4.60;99.90;;;5.06;90.41;103777.53;5074624;28;20048;-70
2022/01/12 08:11:52;;;;;;;42.00;21.60;;;4.80;99.90;;;5.21;90.45;103791.63;5073962;28;20127;-71
2022/01/12 08:14:21;;;;;;;35.70;23.57;;;5.00;99.90;;;5.36;90.32;103791.72;5073896;28;20131;-71
2022/01/12 08:16:50;;;;;;;53.63;22.30;;;5.10;99.90;;;5.46;90.19;103796.69;5073900;28;20059;-71
2022/01/12 08:19:21;;;;;;;29.40;21.95;;;5.20;99.90;;;5.56;90.47;103801.72;5074235;28;20048;-72
2022/01/12 08:21:49;;;;;;;28.13;21.13;;;5.40;99.90;;;5.64;90.32;103807.44;5072525;28;20120;-72
2022/01/12 08:24:18;;;;;;;36.67;21.83;;;5.40;99.90;;;5.62;89.21;103798.56;5073720;28;20040;-74
2022/01/12 08:27:07;;;;;;;31.63;21.17;;;5.40;99.90;;;5.55;88.64;103807.81;5074022;28;20052;-70
2022/01/12 08:29:36;;;;;;;31.03;22.07;;;5.30;99.90;;;5.42;88.78;103782.47;5073999;28;20048;-78
2022/01/12 08:32:07;;;;;;;34.77;23.20;;;5.30;99.90;;;5.61;89.03;103805.56;5073976;28;20098;-78
2022/01/12 08:34:35;;;;;;;44.13;22.43;;;5.40;99.90;;;5.66;89.30;103819.88;5073653;28;20056;-78
2022/01/12 08:37:04;;;;;;;28.33;22.17;;;5.50;99.90;;;5.74;88.99;103815.09;5073646;28;20463;-77
2022/01/12 08:39:33;;;;;;;29.37;21.90;;;5.50;99.90;;;5.84;89.57;103821.06;5073521;28;20044;-77
2022/01/12 08:42:01;;;;;;;33.37;21.07;;;5.60;99.90;;;6.00;89.31;103815.03;5073814;28;20102;-75
2022/01/12 08:44:35;;;;;;;43.33;20.13;;;5.80;99.90;;;6.09;89.31;103826.09;5073456;28;20044;-77
2022/01/12 08:47:06;;;;;;;29.07;18.53;;;5.90;99.90;;;6.11;88.91;103833.28;5072262;28;20507;-74
2022/01/12 08:49:35;;;;;;;24.20;19.13;;;5.90;99.90;;;6.15;89.18;103835.28;5073479;28;20041;-82
2022/01/12 08:52:04;;;;;;;28.93;19.30;;;6.00;99.90;;;6.08;88.67;103840.97;5073360;28;20072;-71
2022/01/12 08:54:33;;;;;;;22.27;19.07;;;6.00;99.90;;;6.02;88.21;103842.31;5072311;28;20481;-76
2022/01/12 08:57:01;;;;;;;29.17;20.33;;;5.80;99.90;;;5.84;87.10;103843.78;5072331;28;20044;-80
2022/01/12 08:59:30;;;;;;;24.37;19.53;;;5.60;99.90;;;5.57;86.61;103847.28;5073170;28;20076;-72
2022/01/12 09:01:58;;;;;;;21.00;18.23;;;5.40;99.90;;;5.81;87.74;103841.84;5072944;28;20078;-71
2022/01/12 09:04:29;;;;;;;25.37;20.87;;;5.50;99.90;;;5.94;88.85;103825.19;5073095;28;20055;-72
2022/01/12 09:06:58;;;;;;;21.85;19.17;;;5.80;99.90;;;6.05;88.07;103853.91;5073232;28;20053;-72
2022/01/12 09:09:27;;;;;;;29.50;18.93;;;5.80;99.90;;;5.75;86.11;103862.47;5072910;28;20391;-72
2022/01/12 09:11:55;;;;;;;20.47;17.50;;;5.60;99.90;;;5.53;86.40;103868.06;5072923;28;20443;-71
2022/01/12 09:14:24;;;;;;;27.90;18.23;;;5.30;99.90;;;5.60;86.77;103869.38;5072847;28;20048;-74
2022/01/12 09:16:54;;;;;;;21.50;16.77;;;5.30;99.90;;;5.59;87.40;103874.53;5072615;28;20043;-68
2022/01/12 09:19:23;;;;;;;21.25;17.58;;;5.30;99.90;;;5.74;87.85;103879.03;5072967;28;20411;-72
2022/01/12 09:21:53;;;;;;;22.47;17.40;;;5.50;99.90;;;5.70;87.34;103887.53;5072733;28;20060;-72
2022/01/12 09:24:21;;;;;;;61.20;38.53;;;5.50;99.90;;;6.18;88.24;103880.13;5072710;28;20110;-74
2022/01/12 09:26:51;;;;;;;222.53;127.77;;;5.80;99.90;;;6.47;88.28;103895.03;5072527;28;20105;-72
2022/01/12 09:29:19;;;;;;;107.63;59.63;;;6.20;99.90;;;6.45;87.37;103866.84;5072991;28;20040;-77
2022/01/12 09:31:48;;;;;;;224.93;126.73;;;6.40;99.90;;;6.53;86.29;103908.56;5072525;28;20040;-72
2022/01/12 09:34:16;;;;;;;21.53;17.43;;;6.40;99.90;;;6.51;85.77;103914.53;5072338;28;20129;-73
2022/01/12 09:36:45;;;;;;;20.88;15.05;;;6.40;99.90;;;6.58;85.75;103917.63;5072249;28;20056;-73
2022/01/12 09:39:14;;;;;;;25.60;16.60;;;6.40;99.90;;;6.42;85.85;103907.03;5072506;28;20040;-76
2022/01/12 09:41:43;;;;;;;26.27;17.13;;;6.30;99.90;;;6.31;86.57;103910.69;5072802;28;20397;-82
2022/01/12 09:44:12;;;;;;;25.08;16.65;;;6.10;99.90;;;6.47;87.07;103913.47;5070605;28;20487;-67
2022/01/12 09:46:41;;;;;;;22.80;15.87;;;6.20;99.90;;;6.44;87.33;103899.22;5072546;28;20122;-74
2022/01/12 09:49:09;;;;;;;25.70;16.92;;;6.30;99.90;;;6.57;87.24;103917.56;5070892;28;20059;-78
2022/01/12 09:51:38;;;;;;;20.37;15.83;;;6.30;99.90;;;6.51;87.28;103917.16;5072363;28;20040;-69
2022/01/12 09:54:06;;;;;;;23.30;16.20;;;6.20;99.90;;;6.30;87.29;103925.59;5072152;28;20463;-75
2022/01/12 09:56:36;;;;;;;23.87;16.23;;;6.10;99.90;;;6.27;88.67;103937.63;5071891;28;20154;-71
2022/01/12 09:59:09;;;;;;;27.35;14.48;;;6.00;99.90;;;6.26;89.45;103927.91;5070488;28;20425;-74
2022/01/12 10:01:43;;;;;;;32.20;13.70;;;6.00;99.90;;;6.43;89.55;103918.47;5071937;28;20459;-71
2022/01/12 10:04:16;;;;;;;35.20;13.33;;;6.10;99.90;;;6.48;89.60;103919.63;5072044;28;20048;-72
2022/01/12 10:06:46;;;;;;;40.80;13.30;;;6.20;99.90;;;6.47;90.01;103910.81;5072203;28;20084;-66
2022/01/12 10:09:16;;;;;;;32.60;17.08;;;6.20;99.90;;;6.78;90.24;103918.84;5072218;28;20135;-65
2022/01/12 10:11:56;;;;;;;28.05;14.45;;;6.50;99.90;;;6.88;89.80;103923.84;5071954;28;20075;-78
2022/01/12 10:14:39;;;;;;;24.50;15.33;;;6.60;99.90;;;7.08;89.51;103931.19;5070864;28;20159;-66
2022/01/12 10:17:07;;;;;;;25.52;16.10;;;6.80;99.90;;;7.21;89.01;103942.53;5072088;28;20136;-69
2022/01/12 10:19:36;;;;;;;24.08;14.98;;;6.90;99.90;;;7.09;88.75;103956.69;5070519;28;20463;-65
2022/01/12 10:22:07;;;;;;;24.55;16.38;;;6.90;99.90;;;7.21;89.15;103952.16;5072125;28;20094;-72
2022/01/12 10:24:38;;;;;;;26.73;15.20;;;7.00;99.90;;;7.26;89.08;103945.41;5071634;28;20044;-71
2022/01/12 10:27:18;;;;;;;28.33;16.35;;;7.00;99.90;;;7.30;88.77;103940.44;5071777;28;20048;-67
2022/01/12 10:29:56;;;;;;;31.02;16.98;;;7.00;99.90;;;7.32;89.00;103935.25;5072156;28;20064;-72
2022/01/12 10:32:25;;;;;;;25.50;16.60;;;7.10;99.90;;;7.32;89.45;103914.19;5071656;28;20076;-79
2022/01/12 10:34:54;;;;;;;29.52;17.00;;;7.10;99.90;;;7.47;89.44;103938.75;5070301;28;20139;-65
2022/01/12 10:37:26;;;;;;;39.00;20.80;;;7.30;99.90;;;7.35;89.24;103895.94;5071393;28;20142;-73
2022/01/12 10:39:56;;;;;;;37.83;20.45;;;7.20;99.90;;;7.62;89.39;103923.84;5071498;28;20044;-71
2022/01/12 10:42:28;;;;;;;39.05;20.80;;;7.40;99.90;;;7.70;89.53;103919.94;5071372;28;20436;-73
2022/01/12 10:45:01;;;;;;;36.88;21.65;;;7.50;99.90;;;7.89;89.52;103920.13;5071589;28;20044;-73
2022/01/12 10:47:31;;;;;;;34.80;21.45;;;7.70;99.90;;;7.89;89.17;103908.66;5069960;28;20132;-73
2022/01/12 10:50:04;;;;;;;42.40;22.75;;;7.80;99.90;;;7.66;89.01;103844.16;5071629;28;20032;-72
2022/01/12 10:52:37;;;;;;;35.50;22.02;;;7.90;99.90;;;8.23;89.07;103926.41;5071695;28;20494;-71
2022/01/12 10:55:08;;;;;;;37.10;21.00;;;8.00;99.90;;;8.33;88.76;103926.94;5071519;28;20440;-69
2022/01/12 10:57:41;;;;;;;33.33;20.40;;;8.10;99.90;;;8.45;88.74;103935.50;5071235;28;20521;-73
2022/01/12 11:00:19;;;;;;;29.77;19.23;;;8.20;99.90;;;8.35;88.59;103947.28;5071274;28;20055;-74
2022/01/12 11:02:50;;;;;;;34.90;20.30;;;8.20;99.90;;;8.42;88.12;103953.81;5071738;28;20068;-70
2022/01/12 11:05:21;;;;;;;36.05;19.90;;;8.20;99.90;;;8.49;88.10;103948.03;5069408;28;20441;-70
2022/01/12 11:07:49;;;;;;;30.83;19.17;;;8.30;99.90;;;8.58;88.07;103933.59;5071588;28;20055;-70
2022/01/12 11:10:19;;;;;;;27.55;18.48;;;8.40;99.90;;;8.59;87.96;103943.34;5071456;28;20414;-69
2022/01/12 11:12:51;;;;;;;28.27;18.52;;;8.40;99.90;;;8.56;87.23;103931.69;5069422;28;20045;-70
2022/01/12 11:15:22;;;;;;;28.25;17.92;;;8.40;99.90;;;8.59;87.21;103930.16;5070986;28;20036;-69
2022/01/12 11:17:52;;;;;;;27.85;16.80;;;8.40;99.90;;;8.38;86.46;103921.06;5070978;28;20048;-72
2022/01/12 11:20:25;;;;;;;30.15;17.67;;;8.30;99.90;;;7.80;86.67;103816.81;5073352;28;20110;-71
2022/01/12 11:23:02;;;;;;;43.60;18.58;;;8.20;99.90;;;8.33;86.99;103913.75;5073580;28;20488;-70
2022/01/12 11:25:33;;;;;;;36.78;18.15;;;8.10;99.90;;;8.12;87.31;103903.84;5075020;28;20040;-73
2022/01/12 11:28:14;;;;;;;32.60;19.30;;;7.90;99.90;;;8.32;88.26;103906.66;5073311;28;20044;-70
2022/01/12 11:30:45;;;;;;;;;;;8.00;99.90;;;8.25;88.79;103886.03;5075212;28;20040;-70
2022/01/12 11:33:15;;;;;;;25.50;18.13;;;8.20;99.90;;;8.35;87.97;103915.66;5073684;28;20065;-69
2022/01/12 11:35:47;;;;;;;28.15;19.50;;;8.20;99.90;;;8.36;88.33;103916.56;5074777;28;20052;-75